Time;durP1;ratioP1;P1;durP2;ratioP2;P2;SDS_P1;SDS_P2;PMS_P1;PMS_P2;Temp;Humidity;BMP_temperature;BMP_pressure;BME280_temperature;BME280_humidity;BME280_pressure;Samples;Min_cycle;Max_cycle;Signal;HPM_P1;HPM_P2
2023/07/04 02:43:37;;;;;;;19.00;8.80;;;;;;;17.65;60.17;98801.91;106878;1305;545566;-49
2023/07/04 02:46:04;;;;;;;19.50;9.00;;;;;;;17.63;60.16;98801.55;107250;1314;22355;-47
2023/07/04 02:48:30;;;;;;;23.30;8.70;;;;;;;17.63;60.37;98805.44;107264;1314;22478;-49
2023/07/04 02:50:56;;;;;;;25.40;8.60;;;;;;;17.64;60.56;98806.23;107443;1312;22248;-46
2023/07/04 02:53:22;;;;;;;19.30;9.00;;;;;;;17.64;60.80;98804.97;107430;1312;22238;-45
2023/07/04 02:55:52;;;;;;;20.10;8.60;;;;;;;17.65;60.42;98806.00;107447;1312;23094;-46
2023/07/04 02:58:19;;;;;;;20.70;8.90;;;;;;;17.65;60.76;98803.65;107557;1309;147050;-53
2023/07/04 03:00:47;;;;;;;21.50;8.50;;;;;;;17.67;60.78;98798.61;107707;1309;23191;-49
2023/07/04 03:03:13;;;;;;;25.00;8.60;;;;;;;17.68;60.48;98796.01;107678;1309;22212;-47
2023/07/04 03:05:38;;;;;;;18.80;8.40;;;;;;;17.69;60.58;98798.89;107704;1309;22253;-45
2023/07/04 03:08:04;;;;;;;18.00;8.10;;;;;;;17.70;60.06;98796.02;107669;1309;22225;-44
2023/07/04 03:10:30;;;;;;;20.00;8.30;;;;;;;17.70;60.49;98795.69;107701;1309;22247;-46
2023/07/04 03:12:55;;;;;;;23.00;9.30;;;;;;;17.71;60.80;98793.29;107719;1309;23031;-50
2023/07/04 03:15:20;;;;;;;22.90;9.00;;;;;;;17.72;60.87;98790.63;107683;1309;22470;-46
2023/07/04 03:17:45;;;;;;;23.60;8.90;;;;;;;17.73;60.34;98793.40;107716;1309;23040;-51
2023/07/04 03:20:12;;;;;;;15.80;8.90;;;;;;;17.75;60.54;98792.89;107680;1309;22241;-48
2023/07/04 03:22:40;;;;;;;16.90;8.30;;;;;;;17.77;60.42;98798.14;107726;1309;22957;-45
2023/07/04 03:25:06;;;;;;;16.70;8.10;;;;;;;17.80;61.03;98798.20;107734;1309;22313;-47
2023/07/04 03:27:33;;;;;;;17.90;8.60;;;;;;;17.84;60.85;98795.58;107699;1309;22366;-48
2023/07/04 03:29:59;;;;;;;22.00;8.60;;;;;;;17.86;61.30;98797.91;107713;1309;22244;-52
2023/07/04 03:32:24;;;;;;;27.20;9.40;;;;;;;17.88;60.67;98801.06;107702;1309;22252;-47
2023/07/04 03:34:49;;;;;;;21.10;8.30;;;;;;;17.91;60.82;98800.66;107701;1309;22944;-47
2023/07/04 03:37:14;;;;;;;19.40;8.50;;;;;;;17.94;60.97;98804.79;107694;1309;22222;-49
2023/07/04 03:39:41;;;;;;;24.20;8.50;;;;;;;17.96;60.62;98807.80;107716;1309;22404;-49
2023/07/04 03:42:06;;;;;;;19.30;9.20;;;;;;;17.99;60.65;98808.60;107712;1309;22429;-47
2023/07/04 03:44:31;;;;;;;18.90;8.50;;;;;;;18.03;60.13;98812.09;107697;1309;22496;-50
2023/07/04 03:46:57;;;;;;;21.60;8.90;;;;;;;18.06;59.97;98809.20;107725;1309;22410;-50
2023/07/04 03:49:22;;;;;;;17.90;9.00;;;;;;;18.08;59.98;98809.31;107688;1309;22238;-48
2023/07/04 03:51:48;;;;;;;19.30;8.90;;;;;;;18.12;59.26;98810.88;107724;1309;23242;-49
2023/07/04 03:54:13;;;;;;;20.10;8.80;;;;;;;18.15;58.64;98812.95;107714;1309;23053;-47
2023/07/04 03:56:38;;;;;;;30.90;9.20;;;;;;;18.15;58.06;98810.26;107700;1309;22955;-46
2023/07/04 03:59:04;;;;;;;21.80;8.80;;;;;;;18.16;58.69;98810.67;107714;1309;22481;-47
2023/07/04 04:01:29;;;;;;;27.50;8.90;;;;;;;18.19;58.46;98814.14;107804;1308;22171;-47
2023/07/04 04:03:54;;;;;;;21.80;8.30;;;;;;;18.19;58.62;98816.24;107814;1308;22226;-47
2023/07/04 04:06:20;;;;;;;24.90;9.10;;;;;;;18.20;58.36;98817.23;107830;1308;22310;-43
2023/07/04 04:08:46;;;;;;;18.00;8.60;;;;;;;18.20;58.54;98812.73;107848;1308;22210;-47
2023/07/04 04:11:11;;;;;;;24.00;9.60;;;;;;;18.21;58.69;98810.05;107811;1308;23039;-52
2023/07/04 04:13:37;;;;;;;22.90;8.80;;;;;;;18.23;58.38;98812.88;107836;1308;22455;-47
2023/07/04 04:16:02;;;;;;;22.30;8.70;;;;;;;18.23;58.33;98811.43;107835;1308;22250;-48
2023/07/04 04:18:28;;;;;;;17.10;8.50;;;;;;;18.21;58.10;98809.15;107829;1308;22245;-46
2023/07/04 04:20:53;;;;;;;20.20;8.20;;;;;;;18.21;58.29;98811.61;107813;1308;22338;-50
2023/07/04 04:23:19;;;;;;;22.80;9.10;;;;;;;18.24;58.05;98813.32;107812;1308;22276;-45
2023/07/04 04:25:45;;;;;;;18.60;8.60;;;;;;;18.27;58.42;98817.85;107824;1308;22410;-48
2023/07/04 04:28:11;;;;;;;17.40;8.50;;;;;;;18.28;58.28;98815.91;107828;1308;22544;-45
2023/07/04 04:30:37;;;;;;;19.10;8.20;;;;;;;18.31;58.88;98821.52;107838;1308;22265;-49
2023/07/04 04:33:03;;;;;;;22.90;8.00;;;;;;;18.33;58.21;98825.94;107808;1308;22871;-50
2023/07/04 04:35:30;;;;;;;25.00;8.20;;;;;;;18.32;58.03;98829.23;107851;1308;22945;-48
2023/07/04 04:37:55;;;;;;;21.40;8.20;;;;;;;18.29;57.02;98826.00;107719;1308;22230;-50
2023/07/04 04:40:21;;;;;;;16.90;7.60;;;;;;;18.30;57.72;98830.48;107829;1308;23067;-44
2023/07/04 04:42:47;;;;;;;16.10;7.50;;;;;;;18.31;58.04;98833.71;107837;1308;22298;-50
2023/07/04 04:45:14;;;;;;;16.60;7.10;;;;;;;18.33;57.52;98838.02;107826;1308;22269;-45
2023/07/04 04:47:39;;;;;;;18.30;6.90;;;;;;;18.35;57.01;98844.02;107821;1308;23110;-47
2023/07/04 04:50:06;;;;;;;18.50;7.60;;;;;;;18.40;57.27;98842.17;107828;1308;22422;-46
2023/07/04 04:52:32;;;;;;;17.90;7.40;;;;;;;18.43;57.43;98844.13;107736;1308;22238;-47
2023/07/04 04:55:00;;;;;;;24.70;7.70;;;;;;;18.46;56.71;98848.84;107835;1308;22935;-50
2023/07/04 04:57:27;;;;;;;16.80;7.10;;;;;;;18.51;56.11;98849.50;107836;1308;22477;-51
2023/07/04 04:59:56;;;;;;;21.50;6.60;;;;;;;18.55;56.09;98850.83;107837;1308;22242;-46
2023/07/04 05:02:23;;;;;;;17.80;7.10;;;;;;;18.60;56.09;98848.03;107807;1308;22270;-50
2023/07/04 05:04:48;;;;;;;16.10;7.70;;;;;;;18.65;55.36;98845.64;107828;1308;22289;-48
2023/07/04 05:07:14;;;;;;;17.00;7.00;;;;;;;18.68;55.19;98849.06;106900;1308;22553;-46
2023/07/04 05:09:39;;;;;;;16.20;6.60;;;;;;;18.73;55.28;98850.69;107679;1308;22403;-51
2023/07/04 05:12:05;;;;;;;25.70;6.90;;;;;;;18.77;54.68;98852.40;107828;1308;22370;-47
2023/07/04 05:14:30;;;;;;;30.40;8.00;;;;;;;18.85;54.96;98852.23;107825;1308;22891;-47
2023/07/04 05:16:55;;;;;;;16.50;5.90;;;;;;;18.94;54.47;98859.40;107787;1308;22419;-48
2023/07/04 05:19:21;;;;;;;14.40;6.00;;;;;;;19.02;53.93;98860.52;107820;1308;22300;-44
2023/07/04 05:21:48;;;;;;;27.90;7.20;;;;;;;19.11;54.23;98859.49;107813;1308;24202;-48
2023/07/04 05:24:13;;;;;;;17.30;6.90;;;;;;;19.17;53.83;98862.09;107820;1308;22464;-51
2023/07/04 05:26:39;;;;;;;14.10;5.10;;;;;;;19.23;53.26;98863.34;107826;1308;22275;-48
2023/07/04 05:29:06;;;;;;;14.60;5.50;;;;;;;19.26;52.55;98868.38;107825;1308;22966;-49
2023/07/04 05:31:32;;;;;;;17.70;5.70;;;;;;;19.25;52.03;98864.86;107814;1308;22205;-46
2023/07/04 05:33:58;;;;;;;15.10;5.40;;;;;;;19.26;52.37;98862.28;107797;1308;22415;-44
2023/07/04 05:36:29;;;;;;;16.50;6.10;;;;;;;19.28;52.61;98860.46;107819;1308;22240;-48
2023/07/04 05:39:02;;;;;;;16.80;5.70;;;;;;;19.32;52.79;98858.20;107830;1308;22417;-48
2023/07/04 05:41:30;;;;;;;19.50;5.40;;;;;;;19.35;52.37;98859.33;107822;1289;22457;-45
2023/07/04 05:43:57;;;;;;;16.60;5.70;;;;;;;19.38;52.08;98855.41;107800;1308;22261;-46
2023/07/04 05:46:23;;;;;;;12.50;5.60;;;;;;;19.41;51.57;98856.59;107823;1308;22696;-48
2023/07/04 05:48:48;;;;;;;13.00;5.10;;;;;;;19.44;51.95;98853.09;107835;1308;22233;-50
2023/07/04 05:51:16;;;;;;;15.70;5.20;;;;;;;19.48;51.93;98853.95;107798;1308;22324;-45
2023/07/04 05:53:43;;;;;;;17.80;5.20;;;;;;;19.50;51.13;98851.45;107841;1308;22228;-47
2023/07/04 05:56:18;;;;;;;21.50;5.70;;;;;;;19.53;51.49;98853.94;107828;1308;22668;-50
2023/07/04 05:58:49;;;;;;;13.10;4.90;;;;;;;19.55;50.99;98855.30;107825;1308;22294;-48
2023/07/04 06:01:23;;;;;;;12.10;4.80;;;;;;;19.59;50.33;98855.16;107803;1308;23153;-47
2023/07/04 06:03:49;;;;;;;13.80;4.20;;;;;;;19.61;49.05;98858.90;107824;1308;23253;-44
2023/07/04 06:06:26;;;;;;;16.70;4.80;;;;;;;19.67;49.42;98856.48;107807;1308;22221;-47
2023/07/04 06:08:53;;;;;;;15.00;5.30;;;;;;;19.73;49.53;98855.40;107725;1308;23100;-44
2023/07/04 06:11:20;;;;;;;14.70;4.00;;;;;;;19.78;49.41;98853.48;107743;1301;22244;-46
2023/07/04 06:13:46;;;;;;;10.80;4.20;;;;;;;19.83;48.98;98857.61;107822;1308;22222;-50
2023/07/04 06:16:11;;;;;;;9.10;3.90;;;;;;;19.87;48.54;98858.29;107811;1308;22423;-52
2023/07/04 06:18:37;;;;;;;13.50;4.80;;;;;;;19.92;48.68;98857.20;107776;1308;22239;-51
2023/07/04 06:21:17;;;;;;;15.80;3.90;;;;;;;19.96;47.33;98856.79;107850;1301;22433;-50
2023/07/04 06:23:43;;;;;;;9.80;4.20;;;;;;;20.01;46.98;98858.43;107796;1301;22218;-50
2023/07/04 06:26:09;;;;;;;12.00;3.60;;;;;;;20.08;47.06;98856.14;107814;1308;22252;-50
2023/07/04 06:28:36;;;;;;;16.10;3.80;;;;;;;20.16;47.11;98860.34;107823;1308;22422;-49
2023/07/04 06:31:07;;;;;;;13.50;3.70;;;;;;;20.21;46.54;98863.30;107797;1308;22433;-47
2023/07/04 06:33:33;;;;;;;8.30;3.70;;;;;;;20.26;44.87;98863.00;107793;1301;22250;-51
2023/07/04 06:35:59;;;;;;;11.70;3.40;;;;;;;20.30;43.79;98862.05;107832;1301;22188;-45
2023/07/04 06:38:25;;;;;;;11.60;3.40;;;;;;;20.37;44.18;98868.55;107806;1308;22225;-45
2023/07/04 06:40:59;;;;;;;10.30;3.30;;;;;;;20.42;43.87;98866.16;107799;1302;22200;-45
2023/07/04 06:43:26;;;;;;;9.40;2.90;;;;;;;20.47;42.31;98863.13;107723;1308;22314;-46
2023/07/04 06:45:51;;;;;;;12.10;3.70;;;;;;;20.53;42.09;98864.15;107667;1309;23391;-52
2023/07/04 06:48:17;;;;;;;14.00;3.40;;;;;;;20.60;42.89;98865.77;107776;1308;22883;-48
2023/07/04 06:50:42;;;;;;;11.80;3.00;;;;;;;20.65;41.96;98865.21;107806;1302;22441;-46
2023/07/04 06:53:08;;;;;;;10.30;3.00;;;;;;;20.73;41.47;98862.85;107808;1308;22486;-47
2023/07/04 06:55:33;;;;;;;12.10;2.90;;;;;;;20.80;40.39;98867.48;107812;1308;22997;-53
2023/07/04 06:57:59;;;;;;;6.50;3.20;;;;;;;20.87;39.72;98866.17;107826;1308;22311;-46
2023/07/04 07:00:24;;;;;;;16.10;3.40;;;;;;;20.91;39.23;98869.49;107789;1304;22477;-51
2023/07/04 07:02:50;;;;;;;10.30;3.00;;;;;;;20.98;40.77;98871.80;107804;1308;22227;-46
2023/07/04 07:05:16;;;;;;;10.70;3.60;;;;;;;21.04;40.01;98875.92;107803;1301;23087;-48
2023/07/04 07:07:42;;;;;;;8.20;3.30;;;;;;;21.11;39.41;98871.90;107829;1308;22240;-47
2023/07/04 07:10:07;;;;;;;7.70;2.90;;;;;;;21.18;39.49;98879.15;107792;1308;22569;-48
2023/07/04 07:12:33;;;;;;;6.20;2.50;;;;;;;21.26;39.57;98878.13;107797;1308;22461;-47
2023/07/04 07:14:58;;;;;;;12.90;2.80;;;;;;;21.34;39.19;98875.80;107803;1301;22313;-46
2023/07/04 07:17:23;;;;;;;11.40;2.90;;;;;;;21.39;37.86;98874.09;107378;1304;22341;-49
2023/07/04 07:19:49;;;;;;;7.50;2.50;;;;;;;21.42;37.03;98869.45;107371;1308;22562;-44
2023/07/04 07:22:14;;;;;;;7.90;2.50;;;;;;;21.50;37.20;98874.35;107458;1308;25446;-44
2023/07/04 07:24:39;;;;;;;6.80;2.40;;;;;;;21.55;36.99;98867.08;107476;1308;22235;-52
2023/07/04 07:27:05;;;;;;;8.40;3.10;;;;;;;21.63;38.14;98863.50;107415;1301;22897;-45
2023/07/04 07:29:30;;;;;;;8.10;2.30;;;;;;;21.71;37.14;98872.60;107630;1308;22575;-49
2023/07/04 07:31:55;;;;;;;12.40;2.80;;;;;;;21.76;36.73;98871.16;106944;1301;22242;-49
2023/07/04 07:34:21;;;;;;;8.60;2.40;;;;;;;21.83;36.98;98873.23;107236;1301;22229;-56
2023/07/04 07:36:47;;;;;;;10.70;2.60;;;;;;;21.86;36.57;98866.69;107811;1301;24003;-49
2023/07/04 07:39:15;;;;;;;9.80;2.90;;;;;;;21.89;36.68;98867.12;107262;1307;22556;-43
2023/07/04 07:41:44;;;;;;;8.30;2.50;;;;;;;21.97;36.99;98863.84;107654;1292;22291;-46
2023/07/04 07:44:11;;;;;;;9.90;2.80;;;;;;;22.03;36.42;98855.77;107789;1308;22229;-52
2023/07/04 07:46:36;;;;;;;5.00;2.70;;;;;;;22.09;36.89;98856.70;107831;1304;22214;-50
2023/07/04 07:49:02;;;;;;;13.20;3.00;;;;;;;22.15;36.39;98854.95;107709;1308;22189;-50
2023/07/04 07:51:28;;;;;;;8.60;2.50;;;;;;;22.21;36.50;98854.83;107792;1308;22908;-46
2023/07/04 07:53:55;;;;;;;9.40;3.00;;;;;;;22.30;37.16;98858.29;107802;1308;22678;-50
2023/07/04 07:56:23;;;;;;;7.50;2.70;;;;;;;22.38;36.33;98858.32;107803;1301;22468;-48
2023/07/04 07:58:49;;;;;;;8.60;2.90;;;;;;;22.46;36.53;98850.09;107809;1308;22407;-52
2023/07/04 08:01:18;;;;;;;5.30;2.40;;;;;;;22.53;36.53;98843.67;107814;1304;22274;-48
2023/07/04 08:03:44;;;;;;;9.20;2.90;;;;;;;22.59;36.06;98844.16;107703;1308;22262;-46
2023/07/04 08:06:20;;;;;;;10.30;2.50;;;;;;;22.68;36.56;98844.11;107776;1304;22524;-50
2023/07/04 08:08:45;;;;;;;8.10;2.40;;;;;;;22.81;35.70;98853.67;107802;1308;22366;-51
2023/07/04 08:11:15;;;;;;;10.50;2.50;;;;;;;22.89;35.76;98850.34;107700;1305;22253;-49
2023/07/04 08:13:41;;;;;;;6.20;2.40;;;;;;;22.98;36.18;98852.59;107798;1308;22466;-48
2023/07/04 08:16:07;;;;;;;8.70;2.40;;;;;;;23.08;35.29;98854.42;107828;1301;22540;-54
2023/07/04 08:18:32;;;;;;;7.50;2.50;;;;;;;23.16;35.40;98856.73;107397;1301;25288;-51
2023/07/04 08:21:00;;;;;;;8.80;3.30;;;;;;;23.17;34.91;98856.35;106888;1301;22338;-47
2023/07/04 08:23:25;;;;;;;5.40;2.50;;;;;;;23.15;34.73;98853.44;107819;1308;22507;-52
2023/07/04 08:25:51;;;;;;;10.10;2.90;;;;;;;23.26;35.37;98852.41;107822;1302;22532;-46
2023/07/04 08:28:17;;;;;;;8.10;3.00;;;;;;;23.34;34.99;98855.30;107782;1308;22265;-50
2023/07/04 08:30:43;;;;;;;6.10;2.40;;;;;;;23.42;34.65;98857.60;107717;1308;23237;-50
2023/07/04 08:33:08;;;;;;;7.30;2.30;;;;;;;23.51;34.18;98860.32;107828;1308;23050;-48
2023/07/04 08:35:33;;;;;;;9.30;2.60;;;;;;;23.61;34.53;98863.63;107210;1308;22577;-47
2023/07/04 08:37:59;;;;;;;10.30;2.40;;;;;;;23.73;34.31;98854.34;107773;1305;22362;-49
2023/07/04 08:40:24;;;;;;;7.30;2.60;;;;;;;23.92;34.64;98848.99;107789;1308;24207;-53
2023/07/04 08:42:49;;;;;;;6.50;2.60;;;;;;;24.16;34.71;98848.09;107784;1308;22131;-51
2023/07/04 08:45:24;;;;;;;5.90;2.80;;;;;;;24.38;34.21;98856.05;107836;1308;22419;-50
2023/07/04 08:47:51;;;;;;;9.40;3.00;;;;;;;24.46;33.65;98857.17;107823;1308;23280;-51
2023/07/04 08:50:25;;;;;;;6.00;3.00;;;;;;;24.53;33.72;98848.68;107808;1308;23027;-47
2023/07/04 08:53:05;;;;;;;6.20;2.90;;;;;;;24.57;32.91;98845.07;107801;1308;22220;-52
2023/07/04 08:55:38;;;;;;;9.40;3.20;;;;;;;24.60;33.05;98847.05;107834;1308;22250;-55
2023/07/04 08:58:04;;;;;;;10.10;3.00;;;;;;;24.76;33.35;98846.52;107789;1307;22268;-54
2023/07/04 09:00:43;;;;;;;5.50;2.70;;;;;;;24.93;33.48;98841.55;107821;1308;22163;-47
2023/07/04 09:03:17;;;;;;;6.30;3.00;;;;;;;25.00;33.11;98839.77;107754;1308;22944;-56
2023/07/04 09:06:01;;;;;;;8.50;3.40;;;;;;;25.13;33.40;98833.48;107814;1308;22308;-52
2023/07/04 09:08:58;;;;;;;9.00;2.90;;;;;;;25.34;33.35;98840.46;107822;1308;22738;-51
2023/07/04 09:11:24;;;;;;;8.60;2.80;;;;;;;25.59;32.59;98841.84;107774;1308;22398;-55
2023/07/04 09:13:56;;;;;;;8.00;4.20;;;;;;;25.78;32.31;98837.02;107749;1308;22264;-52
2023/07/04 09:16:30;;;;;;;6.90;3.10;;;;;;;25.92;31.89;98847.10;107679;1298;22363;-52
2023/07/04 09:18:58;;;;;;;8.70;3.00;;;;;;;25.99;31.31;98848.00;107808;1308;22346;-47
2023/07/04 09:21:25;;;;;;;5.20;3.00;;;;;;;26.12;30.83;98847.45;107781;1308;22240;-48
2023/07/04 09:23:54;;;;;;;9.80;3.20;;;;;;;26.27;30.62;98845.11;107792;1308;22339;-54
2023/07/04 09:26:24;;;;;;;9.10;2.90;;;;;;;26.48;30.78;98850.95;107807;1308;22318;-52
2023/07/04 09:28:52;;;;;;;7.10;3.20;;;;;;;26.64;30.24;98845.30;107788;1308;22234;-51
2023/07/04 09:31:30;;;;;;;12.30;3.30;;;;;;;26.75;29.85;98847.98;107784;1308;23108;-53
2023/07/04 09:33:57;;;;;;;5.50;3.00;;;;;;;27.02;29.73;98849.59;107772;1308;22234;-54
2023/07/04 09:36:30;;;;;;;9.60;3.20;;;;;;;27.41;29.27;98850.64;107800;1302;22998;-48
2023/07/04 09:39:04;;;;;;;8.90;3.40;;;;;;;27.80;29.01;98852.83;107793;1308;22347;-57
2023/07/04 09:41:31;;;;;;;6.80;3.50;;;;;;;28.23;28.81;98856.27;107799;1308;22288;-51
2023/07/04 09:44:12;;;;;;;9.60;3.40;;;;;;;28.52;27.92;98848.46;107763;1308;23012;-47
2023/07/04 09:46:38;;;;;;;5.70;3.20;;;;;;;28.82;27.47;98849.42;107786;1308;22233;-54
2023/07/04 09:49:27;;;;;;;7.40;3.80;;;;;;;29.22;27.56;98848.16;107783;1308;22222;-49
2023/07/04 09:52:05;;;;;;;9.70;4.60;;;;;;;29.52;26.33;98855.25;107798;1308;22274;-50
2023/07/04 09:54:34;;;;;;;9.10;4.00;;;;;;;29.68;25.98;98863.33;107751;1308;22289;-53
2023/07/04 09:57:28;;;;;;;8.00;4.30;;;;;;;29.94;25.98;98861.16;107809;1308;22232;-47
2023/07/04 09:59:54;;;;;;;9.50;3.90;;;;;;;30.36;26.13;98861.58;107808;1308;22461;-52
2023/07/04 10:02:36;;;;;;;8.40;3.50;;;;;;;30.77;25.36;98860.06;107808;1302;22228;-51
2023/07/04 10:05:01;;;;;;;9.60;4.40;;;;;;;30.83;24.88;98856.70;107287;1308;22579;-54
2023/07/04 10:07:27;;;;;;;11.60;3.90;;;;;;;31.33;25.09;98864.90;107784;1304;22197;-55
2023/07/04 10:09:58;;;;;;;11.00;4.20;;;;;;;31.54;23.70;98867.17;107806;1308;22413;-54
2023/07/04 10:12:26;;;;;;;11.40;4.10;;;;;;;31.55;23.48;98862.35;107468;1308;22581;-55
2023/07/04 10:14:53;;;;;;;7.40;3.90;;;;;;;31.89;23.41;98862.64;107145;1308;22463;-51
2023/07/04 10:17:30;;;;;;;6.70;3.80;;;;;;;32.11;23.31;98856.33;107772;1308;22952;-53
2023/07/04 10:20:08;;;;;;;7.40;5.00;;;;;;;31.97;22.75;98861.49;107786;1308;22708;-50
2023/07/04 10:22:41;;;;;;;8.30;4.20;;;;;;;32.22;22.73;98861.16;107781;1304;22321;-53
2023/07/04 10:25:17;;;;;;;6.00;3.90;;;;;;;32.38;22.82;98854.56;107808;1308;22200;-52
2023/07/04 10:27:47;;;;;;;9.90;4.00;;;;;;;32.69;22.54;98847.19;107776;1308;23220;-53
2023/07/04 10:30:29;;;;;;;7.20;3.90;;;;;;;33.22;21.77;98853.23;107767;1308;22750;-53
2023/07/04 10:33:00;;;;;;;9.20;4.40;;;;;;;33.11;20.42;98851.16;107789;1308;22501;-52
2023/07/04 10:35:29;;;;;;;9.90;5.00;;;;;;;33.52;20.50;98848.73;107764;1308;22305;-46
2023/07/04 10:38:03;;;;;;;9.20;4.30;;;;;;;33.83;20.22;98848.22;107759;1302;22217;-51
2023/07/04 10:40:29;;;;;;;6.20;4.50;;;;;;;33.72;20.17;98852.78;107802;1308;22280;-52
2023/07/04 10:43:02;;;;;;;9.20;4.50;;;;;;;33.71;19.93;98849.00;107783;1308;22247;-47
2023/07/04 10:45:35;;;;;;;6.60;4.50;;;;;;;33.80;19.93;98847.08;107788;1302;23335;-51
2023/07/04 10:48:09;;;;;;;8.90;4.50;;;;;;;34.10;20.05;98851.27;107792;1308;22233;-51
2023/07/04 10:50:47;;;;;;;8.40;4.10;;;;;;;34.39;19.69;98851.42;107456;1308;23006;-48
2023/07/04 10:53:12;;;;;;;6.50;3.90;;;;;;;34.30;19.99;98859.09;107769;1308;22235;-47
2023/07/04 10:56:14;;;;;;;10.20;4.00;;;;;;;34.38;19.56;98860.41;107752;1308;23451;-47
2023/07/04 10:58:44;;;;;;;8.40;4.50;;;;;;;34.52;18.89;98852.80;106888;1316;22806;-50
2023/07/04 11:01:16;;;;;;;7.30;4.20;;;;;;;34.45;18.73;98850.77;107006;1316;22259;-47
2023/07/04 11:03:49;;;;;;;9.70;3.90;;;;;;;34.87;19.04;98850.91;106991;1316;22278;-49
2023/07/04 11:06:30;;;;;;;5.30;4.20;;;;;;;35.17;18.87;98846.90;106914;1316;23119;-51
2023/07/04 11:08:56;;;;;;;9.10;3.90;;;;;;;35.59;19.18;98847.84;107024;1297;22288;-49
2023/07/04 11:11:28;;;;;;;6.10;4.00;;;;;;;35.67;18.46;98853.06;106993;1316;22380;-54
2023/07/04 11:13:58;;;;;;;9.00;4.40;;;;;;;35.76;18.41;98855.11;106122;1316;22620;-51
2023/07/04 11:16:31;;;;;;;4.60;3.60;;;;;;;35.75;18.45;98852.92;106726;1316;22368;-53
2023/07/04 11:19:22;;;;;;;7.90;4.50;;;;;;;35.95;18.26;98855.27;106837;1316;22561;-52
2023/07/04 11:22:03;;;;;;;9.10;4.30;;;;;;;36.05;17.64;98851.95;106505;1309;22522;-53
2023/07/04 11:24:52;;;;;;;8.70;4.80;;;;;;;36.17;17.05;98848.98;106078;1316;24299;-53
2023/07/04 11:27:29;;;;;;;7.70;4.60;;;;;;;36.29;16.51;98848.25;106897;1313;22559;-51
2023/07/04 11:30:01;;;;;;;5.90;4.80;;;;;;;35.91;16.68;98857.30;106425;1316;22345;-51
2023/07/04 11:32:36;;;;;;;6.90;4.70;;;;;;;35.89;17.12;98849.48;107028;1311;22281;-54
2023/07/04 11:35:11;;;;;;;11.10;5.40;;;;;;;35.79;16.99;98852.31;107303;1308;22605;-52
2023/07/04 11:37:57;;;;;;;8.40;4.80;;;;;;;36.07;16.82;98855.75;107145;1308;22362;-53
2023/07/04 11:40:29;;;;;;;5.90;4.80;;;;;;;36.02;16.79;98845.63;107788;1308;22245;-51
2023/07/04 11:42:58;;;;;;;8.70;5.00;;;;;;;36.49;16.92;98841.45;107737;1308;22364;-48
2023/07/04 11:45:26;;;;;;;6.70;5.10;;;;;;;37.00;16.66;98844.67;107825;1308;22401;-51
2023/07/04 11:47:55;;;;;;;8.40;5.60;;;;;;;37.02;16.11;98848.30;107817;1308;23239;-54
2023/07/04 11:50:29;;;;;;;6.60;5.60;;;;;;;36.93;15.85;98854.90;107807;1308;22451;-48
2023/07/04 11:53:01;;;;;;;9.30;5.30;;;;;;;36.94;16.20;98849.48;107798;1308;22220;-48
2023/07/04 11:55:35;;;;;;;5.70;5.10;;;;;;;36.66;15.99;98843.20;107825;1308;22287;-52
2023/07/04 11:58:20;;;;;;;10.10;6.00;;;;;;;36.53;16.25;98841.98;107807;1308;22307;-50
2023/07/04 12:00:49;;;;;;;8.40;6.70;;;;;;;36.51;16.21;98846.85;107792;1308;22902;-48
2023/07/04 12:03:17;;;;;;;7.20;5.50;;;;;;;36.71;15.89;98847.40;107779;1304;23038;-53
2023/07/04 12:05:49;;;;;;;8.50;6.00;;;;;;;36.73;16.18;98844.57;107603;1308;22271;-52
2023/07/04 12:08:34;;;;;;;6.70;5.60;;;;;;;36.48;16.35;98840.09;107825;1305;22269;-46
2023/07/04 12:11:04;;;;;;;12.10;6.20;;;;;;;36.56;16.37;98837.14;107803;1308;22296;-49
2023/07/04 12:13:34;;;;;;;12.20;6.10;;;;;;;36.20;16.59;98839.99;107799;1308;22257;-46
2023/07/04 12:16:00;;;;;;;9.00;5.90;;;;;;;35.81;17.42;98831.56;107806;1308;22317;-49
2023/07/04 12:18:27;;;;;;;8.40;5.60;;;;;;;35.78;17.43;98834.14;107805;1308;22739;-50
2023/07/04 12:20:54;;;;;;;7.00;5.50;;;;;;;35.35;17.94;98828.78;107761;1308;22343;-52
2023/07/04 12:23:20;;;;;;;;;;;;;;;34.71;18.47;98824.26;107818;1308;23100;-53
2023/07/04 12:25:51;;;;;;;9.40;5.50;;;;;;;34.35;18.99;98823.61;107794;1308;22285;-49
2023/07/04 12:28:22;;;;;;;8.60;5.50;;;;;;;33.99;19.63;98819.08;107802;1308;22261;-47
2023/07/04 12:31:00;;;;;;;14.80;6.10;;;;;;;33.75;20.01;98820.73;107692;1308;23068;-50
2023/07/04 12:33:37;;;;;;;13.10;6.20;;;;;;;33.40;20.06;98822.13;107802;1302;23288;-49
2023/07/04 12:36:09;;;;;;;13.70;6.70;;;;;;;33.17;19.92;98821.71;107780;1308;22317;-50
2023/07/04 12:38:44;;;;;;;10.40;6.50;;;;;;;33.02;19.83;98817.05;107827;1305;22222;-47
2023/07/04 12:41:09;;;;;;;13.90;7.90;;;;;;;32.38;19.74;98824.41;107779;1308;22219;-47
2023/07/04 12:43:37;;;;;;;10.20;7.90;;;;;;;32.22;19.40;98817.95;107821;1308;22534;-48
2023/07/04 12:46:19;;;;;;;13.40;8.50;;;;;;;32.11;20.18;98819.94;107829;1308;22809;-50
2023/07/04 12:48:45;;;;;;;13.00;7.40;;;;;;;31.94;20.55;98816.15;107793;1306;22413;-51
2023/07/04 12:51:15;;;;;;;13.30;7.00;;;;;;;31.78;21.13;98809.89;107938;1307;22927;-46
2023/07/04 12:53:42;;;;;;;14.60;7.20;;;;;;;31.78;21.44;98810.02;107876;1304;22326;-50
2023/07/04 12:56:10;;;;;;;14.00;7.00;;;;;;;31.69;21.80;98813.54;107900;1304;23027;-51
2023/07/04 12:58:46;;;;;;;7.50;6.50;;;;;;;31.57;21.93;98809.90;107877;1308;22972;-51
2023/07/04 13:01:18;;;;;;;11.40;8.00;;;;;;;31.43;21.29;98814.23;107823;1308;22220;-45
2023/07/04 13:03:44;;;;;;;15.30;9.30;;;;;;;31.20;21.42;98812.89;107796;1308;22439;-47
2023/07/04 13:06:19;;;;;;;10.70;7.80;;;;;;;31.17;21.95;98813.34;107828;1308;22221;-48
2023/07/04 13:08:49;;;;;;;13.40;7.50;;;;;;;31.25;22.18;98812.48;107816;1308;22245;-51
2023/07/04 13:11:15;;;;;;;11.80;7.70;;;;;;;31.09;22.52;98810.14;107811;1302;22268;-54
2023/07/04 13:13:45;;;;;;;15.00;8.50;;;;;;;31.14;22.71;98809.91;107672;1309;22491;-52
2023/07/04 13:16:31;;;;;;;9.90;8.00;;;;;;;31.02;22.49;98818.06;107732;1301;22730;-50
2023/07/04 13:19:13;;;;;;;14.90;9.60;;;;;;;30.92;22.53;98820.28;107829;1308;23186;-50
2023/07/04 13:21:50;;;;;;;14.60;10.00;;;;;;;30.82;21.92;98820.88;107833;1308;22205;-49
2023/07/04 13:24:25;;;;;;;17.60;10.70;;;;;;;30.69;21.86;98811.56;107849;1290;23082;-50
2023/07/04 13:26:54;;;;;;;20.90;10.50;;;;;;;30.67;22.32;98806.48;107816;1308;23046;-48
2023/07/04 13:29:26;;;;;;;17.10;10.60;;;;;;;30.71;22.28;98818.10;107728;1308;22417;-51
2023/07/04 13:31:52;;;;;;;20.80;11.40;;;;;;;30.41;22.18;98825.52;107809;1302;23273;-49
2023/07/04 13:34:23;;;;;;;16.80;11.00;;;;;;;30.43;22.20;98824.76;107834;1308;22422;-50
2023/07/04 13:37:01;;;;;;;18.40;11.10;;;;;;;30.41;22.37;98825.19;107809;1308;22383;-46
2023/07/04 13:39:29;;;;;;;19.10;10.90;;;;;;;30.34;22.58;98826.17;107839;1308;22231;-50
2023/07/04 13:41:56;;;;;;;14.40;10.30;;;;;;;30.28;22.76;98824.02;107802;1308;22448;-48
2023/07/04 13:44:22;;;;;;;17.60;9.60;;;;;;;30.17;23.17;98824.70;107778;1308;23336;-54
2023/07/04 13:46:48;;;;;;;19.00;10.50;;;;;;;29.90;23.58;98819.36;107785;1308;22403;-47
2023/07/04 13:49:14;;;;;;;12.30;9.60;;;;;;;29.82;23.77;98817.21;107684;1309;22469;-49
2023/07/04 13:51:39;;;;;;;17.10;10.50;;;;;;;29.97;23.58;98819.67;107711;1301;22633;-52
2023/07/04 13:54:05;;;;;;;16.20;10.50;;;;;;;29.82;23.35;98817.59;107788;1308;22343;-52
2023/07/04 13:56:34;;;;;;;11.80;9.30;;;;;;;29.47;23.81;98820.37;107709;1308;22351;-49
2023/07/04 13:58:59;;;;;;;17.20;9.10;;;;;;;29.17;24.56;98819.20;107795;1308;22287;-52
2023/07/04 14:01:25;;;;;;;14.20;9.20;;;;;;;29.12;24.88;98820.10;107805;1308;22211;-49
2023/07/04 14:03:50;;;;;;;18.10;10.00;;;;;;;29.10;25.10;98812.66;107784;1308;22208;-52
2023/07/04 14:06:16;;;;;;;18.60;9.90;;;;;;;29.20;25.20;98807.99;107792;1308;22286;-53
2023/07/04 14:08:45;;;;;;;14.10;10.00;;;;;;;29.28;25.23;98811.29;107770;1308;22086;-51
2023/07/04 14:11:13;;;;;;;18.80;11.60;;;;;;;29.39;24.69;98815.09;107793;1308;23020;-50